Time;durP1;ratioP1;P1;durP2;ratioP2;P2;SDS_P1;SDS_P2;PMS_P1;PMS_P2;Temp;Humidity;BMP_temperature;BMP_pressure;BME280_temperature;BME280_humidity;BME280_pressure;Samples;Min_cycle;Max_cycle;Signal;HPM_P1;HPM_P2
2022/07/27 00:00:41;;;;;;;10.73;8.90;;;;;;;27.36;50.31;98879.59;5150164;27;20018;-74
2022/07/27 00:03:06;;;;;;;12.77;9.43;;;;;;;27.38;50.43;98878.31;5150356;27;20031;-75
2022/07/27 00:05:32;;;;;;;12.20;9.18;;;;;;;27.37;50.43;98862.22;5150718;27;20042;-74
2022/07/27 00:07:57;;;;;;;11.40;9.05;;;;;;;27.37;50.18;98873.94;5150610;27;20125;-74
2022/07/27 00:10:23;;;;;;;13.02;8.30;;;;;;;27.35;50.10;98867.91;5150312;27;20019;-74
2022/07/27 00:12:48;;;;;;;9.60;8.57;;;;;;;27.34;50.25;98863.56;5149511;27;20031;-74
2022/07/27 00:15:14;;;;;;;9.98;8.15;;;;;;;27.36;50.56;98868.72;5150157;27;20091;-74
2022/07/27 00:17:39;;;;;;;12.98;9.25;;;;;;;27.36;50.18;98866.00;5150384;27;20027;-73
2022/07/27 00:20:05;;;;;;;10.65;8.85;;;;;;;27.34;50.21;98870.91;5150252;27;20027;-73
2022/07/27 00:22:31;;;;;;;11.35;8.05;;;;;;;27.33;50.24;98875.50;5149164;27;20026;-73
2022/07/27 00:24:56;;;;;;;11.15;8.40;;;;;;;27.33;50.24;98880.13;5143752;27;20019;-74
2022/07/27 00:27:21;;;;;;;9.77;8.45;;;;;;;27.33;50.54;98875.50;5129658;28;20016;-73
2022/07/27 00:29:47;;;;;;;10.32;9.15;;;;;;;27.32;50.45;98875.75;5129665;28;20222;-73
2022/07/27 00:32:12;;;;;;;10.77;8.30;;;;;;;27.30;50.23;98867.03;5144966;27;20038;-73
2022/07/27 00:34:38;;;;;;;12.27;8.85;;;;;;;27.34;50.20;98870.91;5149798;27;20228;-72
2022/07/27 00:37:03;;;;;;;11.07;8.40;;;;;;;27.33;50.26;98872.78;5149570;27;21585;-73
2022/07/27 00:39:30;;;;;;;12.75;9.43;;;;;;;27.33;50.33;98874.69;5149924;27;20035;-73
2022/07/27 00:41:56;;;;;;;9.18;8.10;;;;;;;27.31;50.50;98869.47;5149087;27;20035;-72
2022/07/27 00:44:30;;;;;;;11.23;8.93;;;;;;;27.32;50.19;98865.69;5149097;27;20098;-72
2022/07/27 00:46:56;;;;;;;9.65;8.73;;;;;;;27.32;50.21;98873.84;5149757;27;20230;-72
2022/07/27 00:49:23;;;;;;;10.13;8.38;;;;;;;27.30;50.21;98877.88;5149898;27;20098;-72
2022/07/27 00:51:49;;;;;;;13.13;8.90;;;;;;;27.28;50.35;98878.13;5149315;27;20264;-72
2022/07/27 00:54:15;;;;;;;9.50;8.60;;;;;;;27.25;50.77;98878.63;5148938;27;20045;-72
2022/07/27 00:56:42;;;;;;;11.82;8.30;;;;;;;27.24;50.43;98887.84;5149384;27;20026;-72
2022/07/27 00:59:09;;;;;;;10.30;8.73;;;;;;;27.22;50.42;98890.78;5147887;27;20033;-71
2022/07/27 01:01:35;;;;;;;11.27;8.63;;;;;;;27.22;50.73;98890.78;5149573;27;20147;-74
2022/07/27 01:04:00;;;;;;;12.63;8.52;;;;;;;27.21;50.51;98891.06;5148595;27;20019;-73
2022/07/27 01:06:27;;;;;;;11.40;9.05;;;;;;;27.23;50.56;98888.91;5149093;27;20026;-72
2022/07/27 01:09:55;;;;;;;9.95;8.35;;;;;;;27.21;50.65;98880.19;5148959;27;20023;-73
2022/07/27 01:11:38;;;;;;;12.30;8.85;;;;;;;27.22;50.61;98887.28;5148903;27;20050;-72
2022/07/27 01:14:04;;;;;;;10.05;8.60;;;;;;;27.22;50.82;98881.84;5149203;27;20026;-73
2022/07/27 01:16:29;;;;;;;10.15;8.65;;;;;;;27.22;50.54;98888.06;5149294;27;20011;-73
2022/07/27 01:18:54;;;;;;;10.75;8.55;;;;;;;27.23;50.60;98899.78;5149235;27;20243;-73
2022/07/27 01:21:20;;;;;;;10.88;8.50;;;;;;;27.18;50.62;98889.66;5148970;27;20144;-73
2022/07/27 01:23:45;;;;;;;11.65;8.90;;;;;;;27.21;50.50;98896.47;5148457;27;20239;-73
2022/07/27 01:26:11;;;;;;;10.77;8.98;;;;;;;27.20;50.78;98897.56;5148797;27;20093;-72
2022/07/27 01:28:36;;;;;;;12.07;9.52;;;;;;;27.20;50.50;98895.69;5148213;27;20047;-73
2022/07/27 01:31:02;;;;;;;10.82;9.07;;;;;;;27.21;50.79;98889.16;5149114;27;20019;-73
2022/07/27 01:33:27;;;;;;;11.90;9.70;;;;;;;27.21;50.68;98891.88;5149074;27;20177;-73
2022/07/27 01:35:54;;;;;;;10.23;7.88;;;;;;;27.20;50.75;98890.25;5149100;27;20080;-72
2022/07/27 01:38:20;;;;;;;11.57;9.25;;;;;;;27.19;50.76;98894.03;5148183;27;20045;-72
2022/07/27 01:40:45;;;;;;;11.00;9.40;;;;;;;27.18;50.90;98891.53;5148459;27;20236;-73
2022/07/27 01:43:11;;;;;;;10.02;8.75;;;;;;;27.19;50.56;98893.19;5148888;27;20041;-73
2022/07/27 01:45:38;;;;;;;11.10;9.00;;;;;;;27.18;50.45;98892.38;5148937;27;20228;-72
2022/07/27 01:48:03;;;;;;;10.73;8.63;;;;;;;27.17;50.47;98893.44;5148051;27;20064;-72
2022/07/27 01:50:29;;;;;;;9.63;8.43;;;;;;;27.18;50.54;98888.81;5148821;27;20023;-72
2022/07/27 01:52:54;;;;;;;10.98;8.85;;;;;;;27.18;50.60;98894.25;5140686;27;20028;-72
2022/07/27 01:55:20;;;;;;;11.57;8.43;;;;;;;27.16;50.73;98893.66;5136105;27;20042;-72
2022/07/27 01:57:45;;;;;;;11.07;8.88;;;;;;;27.17;50.90;98898.03;5148094;27;20019;-72
2022/07/27 02:00:11;;;;;;;9.88;8.57;;;;;;;27.19;50.81;98904.06;5148273;28;20023;-72
2022/07/27 02:02:37;;;;;;;10.20;9.18;;;;;;;27.18;50.73;98902.41;5148593;28;20090;-72
2022/07/27 02:05:03;;;;;;;12.68;9.25;;;;;;;27.18;50.66;98905.13;5148454;27;20090;-72
2022/07/27 02:07:28;;;;;;;10.93;8.57;;;;;;;27.17;50.89;98903.47;5148515;28;20019;-72
2022/07/27 02:09:54;;;;;;;12.10;8.80;;;;;;;27.16;50.74;98894.50;5148265;28;20049;-72
2022/07/27 02:12:35;;;;;;;11.45;9.32;;;;;;;27.14;50.85;98896.66;5148262;28;20015;-72
2022/07/27 02:15:12;;;;;;;11.80;9.38;;;;;;;27.16;50.64;98893.66;5148481;28;20100;-72
2022/07/27 02:17:39;;;;;;;12.52;10.32;;;;;;;27.16;51.02;98889.06;5148518;27;20042;-72
2022/07/27 02:20:05;;;;;;;9.77;8.77;;;;;;;27.19;50.79;98902.19;5148611;28;20095;-71
2022/07/27 02:22:31;;;;;;;11.43;9.07;;;;;;;27.21;50.89;98904.63;5148220;27;20121;-72
2022/07/27 02:24:57;;;;;;;12.13;9.40;;;;;;;27.20;50.88;98900.25;5148186;28;20014;-71
2022/07/27 02:27:22;;;;;;;10.50;9.45;;;;;;;27.19;50.84;98899.47;5147786;28;20019;-71
2022/07/27 02:29:48;;;;;;;13.00;9.60;;;;;;;27.18;50.75;98903.25;5148329;28;20037;-72
2022/07/27 02:32:14;;;;;;;14.75;9.90;;;;;;;27.20;50.75;98894.84;5148390;28;20051;-72
2022/07/27 02:34:39;;;;;;;13.85;9.27;;;;;;;27.19;50.76;98904.06;5149388;27;20034;-70
2022/07/27 02:37:05;;;;;;;10.38;9.00;;;;;;;27.18;50.81;98897.81;5151676;27;20063;-70
2022/07/27 02:39:30;;;;;;;10.98;9.82;;;;;;;27.19;50.91;98902.19;5151833;27;20098;-71
2022/07/27 02:41:55;;;;;;;12.85;9.13;;;;;;;27.19;50.89;98896.75;5152394;27;20038;-71
2022/07/27 02:44:21;;;;;;;13.98;9.23;;;;;;;27.20;50.89;98901.09;5152370;27;20022;-71
2022/07/27 02:46:46;;;;;;;11.35;9.73;;;;;;;27.21;50.84;98896.47;5152253;27;20038;-72
2022/07/27 02:49:12;;;;;;;9.82;8.50;;;;;;;27.22;50.86;98909.00;5151686;27;20027;-72
2022/07/27 02:51:37;;;;;;;10.40;9.23;;;;;;;27.21;50.95;98912.78;5151692;27;20033;-72
2022/07/27 02:54:03;;;;;;;11.20;9.98;;;;;;;27.20;50.80;98906.53;5151762;27;20075;-71
2022/07/27 02:56:28;;;;;;;11.20;8.77;;;;;;;27.21;50.57;98912.78;5152029;27;20091;-72
2022/07/27 02:58:54;;;;;;;12.32;9.85;;;;;;;27.23;50.82;98910.66;5152964;27;20256;-72
2022/07/27 03:01:20;;;;;;;11.45;9.80;;;;;;;27.22;50.99;98903.56;5151551;27;20082;-72
2022/07/27 03:03:46;;;;;;;12.45;8.82;;;;;;;27.22;50.73;98909.81;5151891;27;20027;-72
2022/07/27 03:06:11;;;;;;;13.50;9.30;;;;;;;27.22;50.91;98909.81;5151373;27;20021;-72
2022/07/27 03:08:37;;;;;;;14.55;9.38;;;;;;;27.24;51.06;98909.56;5151782;27;20160;-72
2022/07/27 03:11:02;;;;;;;12.05;10.25;;;;;;;27.25;50.80;98914.75;5133863;27;20230;-72
2022/07/27 03:13:28;;;;;;;13.35;10.23;;;;;;;27.23;51.22;98913.34;5151162;27;20121;-70
2022/07/27 03:15:54;;;;;;;11.70;10.50;;;;;;;27.24;51.16;98906.84;5151176;27;20026;-71
2022/07/27 03:18:20;;;;;;;11.60;9.43;;;;;;;27.26;50.98;98904.72;5151594;27;20027;-71
2022/07/27 03:20:46;;;;;;;12.00;9.35;;;;;;;27.26;50.89;98902.00;5151100;27;20031;-71
2022/07/27 03:23:11;;;;;;;11.32;10.13;;;;;;;27.29;50.78;98904.22;5151217;27;20031;-71
2022/07/27 03:25:37;;;;;;;17.17;10.20;;;;;;;27.33;51.10;98899.13;5150949;27;20031;-71
2022/07/27 03:28:03;;;;;;;15.85;10.20;;;;;;;27.34;50.94;98898.88;5151472;27;20293;-72
2022/07/27 03:30:28;;;;;;;15.95;11.13;;;;;;;27.38;51.48;98896.47;5151238;27;20026;-72
2022/07/27 03:32:54;;;;;;;14.05;10.82;;;;;;;27.41;51.58;98901.41;5150730;27;20079;-72
2022/07/27 03:35:19;;;;;;;11.30;10.18;;;;;;;27.43;51.16;98902.00;5150715;27;20076;-71
2022/07/27 03:37:45;;;;;;;12.18;10.25;;;;;;;27.44;51.40;98905.53;5150992;27;20046;-71
2022/07/27 03:40:11;;;;;;;19.23;10.50;;;;;;;27.47;51.52;98907.78;5150739;27;20019;-72
2022/07/27 03:42:37;;;;;;;17.08;12.00;;;;;;;27.48;51.64;98904.84;5150692;27;20031;-72
2022/07/27 03:45:04;;;;;;;13.50;11.20;;;;;;;27.52;51.62;98910.59;5150378;27;20148;-71
2022/07/27 03:47:29;;;;;;;14.05;11.40;;;;;;;27.52;51.45;98911.41;5150309;27;20015;-72
2022/07/27 03:49:54;;;;;;;15.35;11.77;;;;;;;27.56;51.41;98911.75;5151083;27;20239;-72
2022/07/27 03:52:20;;;;;;;14.30;10.80;;;;;;;27.54;51.55;98916.59;5150927;27;20026;-71
2022/07/27 03:54:46;;;;;;;15.70;11.32;;;;;;;27.57;51.70;98916.13;5150221;27;20240;-71
2022/07/27 03:57:11;;;;;;;16.88;11.50;;;;;;;27.60;51.37;98921.03;5150330;27;20019;-71
2022/07/27 03:59:37;;;;;;;12.73;11.40;;;;;;;27.61;51.48;98919.97;5150878;27;20034;-72
2022/07/27 04:02:03;;;;;;;17.35;12.32;;;;;;;27.63;51.69;98920.53;5150321;27;20019;-71
2022/07/27 04:04:29;;;;;;;18.75;11.80;;;;;;;27.66;51.53;98924.66;5150309;27;20203;-70
2022/07/27 04:06:54;;;;;;;14.10;12.30;;;;;;;27.66;51.66;98922.75;5150547;27;20038;-71
2022/07/27 04:09:20;;;;;;;21.83;13.07;;;;;;;27.69;51.38;98927.72;5150650;27;20025;-71
2022/07/27 04:11:45;;;;;;;17.20;12.57;;;;;;;27.69;51.47;98930.44;5150255;27;20116;-70
2022/07/27 04:14:11;;;;;;;18.48;12.88;;;;;;;27.70;51.57;98934.78;5149947;27;20023;-71
2022/07/27 04:16:37;;;;;;;16.45;12.43;;;;;;;27.70;51.08;98934.78;5149551;27;20129;-70
2022/07/27 04:19:03;;;;;;;19.10;12.30;;;;;;;27.70;51.31;98936.66;5150537;27;20033;-71
2022/07/27 04:21:28;;;;;;;17.35;12.25;;;;;;;27.70;51.51;98929.34;5150338;27;20079;-71
2022/07/27 04:23:54;;;;;;;16.67;12.88;;;;;;;27.71;51.71;98931.00;5150067;27;20049;-70
2022/07/27 04:26:19;;;;;;;14.43;12.38;;;;;;;27.72;51.38;98923.66;5149900;27;20023;-71
2022/07/27 04:28:45;;;;;;;16.40;12.50;;;;;;;27.78;51.34;98930.00;5149680;27;20026;-71
2022/07/27 04:31:10;;;;;;;21.50;14.15;;;;;;;27.81;51.17;98935.75;5150285;27;20065;-71
2022/07/27 04:33:36;;;;;;;18.55;13.05;;;;;;;27.87;50.99;98936.63;5150082;27;20132;-71
2022/07/27 04:36:02;;;;;;;21.85;13.57;;;;;;;27.94;51.23;98933.78;5149706;27;20067;-70
2022/07/27 04:38:27;;;;;;;23.55;14.13;;;;;;;28.00;50.73;98921.88;5149841;27;20094;-71
2022/07/27 04:40:53;;;;;;;23.85;13.73;;;;;;;28.17;50.68;98935.44;5149888;27;20148;-71
2022/07/27 04:43:18;;;;;;;20.55;15.02;;;;;;;28.30;49.99;98937.81;5149423;27;20240;-71
2022/07/27 04:45:44;;;;;;;20.95;13.73;;;;;;;28.41;49.54;98941.47;5149402;27;20030;-71
2022/07/27 04:48:09;;;;;;;15.52;13.93;;;;;;;28.54;49.43;98939.44;5149249;27;20140;-72
2022/07/27 04:50:40;;;;;;;16.02;13.60;;;;;;;28.63;49.17;98929.75;5149719;27;20174;-72
2022/07/27 04:53:05;;;;;;;20.83;14.90;;;;;;;28.72;49.15;98927.41;5149525;27;20030;-71
2022/07/27 04:55:31;;;;;;;18.95;14.10;;;;;;;28.80;49.19;98935.16;5149165;27;20023;-71
2022/07/27 04:57:56;;;;;;;18.40;13.82;;;;;;;28.89;49.25;98935.50;5148014;27;20259;-71
2022/07/27 05:00:22;;;;;;;14.95;12.77;;;;;;;28.92;48.50;98935.81;5149626;27;20145;-70
2022/07/27 05:02:47;;;;;;;20.58;14.98;;;;;;;29.03;48.74;98942.19;5149456;27;20031;-70
2022/07/27 05:05:13;;;;;;;15.68;14.00;;;;;;;29.11;48.45;98937.38;5149633;27;20029;-71
2022/07/27 05:07:38;;;;;;;18.73;12.82;;;;;;;29.18;48.43;98936.09;5148917;27;20228;-70
2022/07/27 05:10:04;;;;;;;20.48;13.20;;;;;;;29.24;47.69;98935.03;5149352;27;20143;-70
2022/07/27 05:12:29;;;;;;;16.02;13.50;;;;;;;29.30;47.82;98935.88;5148861;27;20015;-70
2022/07/27 05:14:55;;;;;;;18.52;14.98;;;;;;;29.37;47.42;98936.53;5149400;27;20191;-70
2022/07/27 05:17:20;;;;;;;16.65;14.07;;;;;;;29.42;47.58;98938.47;5149119;27;20015;-70
2022/07/27 05:19:46;;;;;;;15.50;13.23;;;;;;;29.49;47.65;98936.34;5149298;27;20228;-70
2022/07/27 05:22:11;;;;;;;15.93;12.77;;;;;;;29.56;47.27;98938.03;5153303;27;20128;-70
2022/07/27 05:24:37;;;;;;;19.85;13.63;;;;;;;29.64;47.07;98937.53;5162543;27;20023;-70
2022/07/27 05:27:02;;;;;;;20.02;13.73;;;;;;;29.69;46.71;98940.31;5133875;27;20030;-70
2022/07/27 05:29:28;;;;;;;15.75;13.00;;;;;;;29.75;46.84;98944.72;5149089;27;20022;-70
2022/07/27 05:31:53;;;;;;;22.05;13.45;;;;;;;29.79;46.94;98945.00;5149057;27;20019;-70
2022/07/27 05:34:19;;;;;;;17.17;11.95;;;;;;;29.86;46.47;98931.16;5148771;27;20239;-71
2022/07/27 05:36:44;;;;;;;15.55;13.68;;;;;;;29.91;46.36;98939.38;5148527;27;20114;-71
2022/07/27 05:39:10;;;;;;;14.23;11.85;;;;;;;29.93;46.00;98929.84;5148894;27;20037;-70
2022/07/27 05:41:35;;;;;;;14.20;12.27;;;;;;;29.99;46.30;98936.16;5148614;27;20067;-71
2022/07/27 05:44:00;;;;;;;19.35;12.25;;;;;;;30.01;46.09;98938.63;5148418;27;20027;-70
2022/07/27 05:46:26;;;;;;;12.05;10.73;;;;;;;30.05;45.94;98943.31;5148274;27;20300;-71
2022/07/27 05:48:51;;;;;;;17.73;13.48;;;;;;;30.10;46.10;98935.13;5148036;27;20023;-70
2022/07/27 05:51:17;;;;;;;13.90;12.52;;;;;;;30.14;45.53;98938.97;5148385;27;20008;-70
2022/07/27 05:53:42;;;;;;;16.30;13.13;;;;;;;30.19;45.67;98932.72;5148011;27;20027;-71
2022/07/27 05:56:08;;;;;;;16.63;13.75;;;;;;;30.18;45.43;98936.53;5148387;27;20019;-70
2022/07/27 05:58:34;;;;;;;15.40;13.48;;;;;;;30.16;45.58;98937.91;5148643;27;20030;-71
2022/07/27 06:00:59;;;;;;;18.02;12.77;;;;;;;30.16;45.33;98935.16;5148309;27;20023;-70
2022/07/27 06:03:25;;;;;;;15.93;12.27;;;;;;;30.16;45.62;98940.63;5148058;28;20027;-70
2022/07/27 06:05:51;;;;;;;14.68;13.10;;;;;;;30.16;45.71;98938.69;5147770;28;20023;-70
2022/07/27 06:08:17;;;;;;;17.15;14.05;;;;;;;30.12;45.74;98938.41;5148037;28;20027;-70
2022/07/27 06:10:42;;;;;;;14.13;12.57;;;;;;;30.10;45.65;98937.84;5151549;27;20027;-71
2022/07/27 06:13:10;;;;;;;15.55;13.38;;;;;;;30.07;45.87;98932.13;5152682;27;20014;-71
2022/07/27 06:15:37;;;;;;;15.15;12.93;;;;;;;30.03;45.97;98937.28;5152699;27;20078;-68
2022/07/27 06:18:02;;;;;;;18.23;13.60;;;;;;;29.91;46.03;98929.28;5152330;27;20018;-70
2022/07/27 06:20:29;;;;;;;14.63;12.88;;;;;;;29.80;46.09;98928.38;5152326;27;20014;-70
2022/07/27 06:22:58;;;;;;;13.75;12.35;;;;;;;29.62;46.31;98924.19;5152190;27;20031;-70
2022/07/27 06:25:25;;;;;;;13.82;12.45;;;;;;;29.46;46.74;98933.31;5144547;27;20027;-70
2022/07/27 06:27:52;;;;;;;14.57;11.63;;;;;;;29.34;46.96;98930.72;5152380;27;20018;-70
2022/07/27 06:30:19;;;;;;;13.80;12.40;;;;;;;29.26;47.49;98928.50;5152175;27;20026;-70
2022/07/27 06:32:45;;;;;;;14.32;12.82;;;;;;;29.18;47.66;98927.91;5152117;27;20035;-69
2022/07/27 06:35:12;;;;;;;16.25;12.90;;;;;;;29.14;47.78;98931.38;5152465;27;20023;-70
2022/07/27 06:37:42;;;;;;;16.38;14.60;;;;;;;29.10;47.97;98928.34;5152573;27;20038;-70
2022/07/27 06:40:12;;;;;;;15.35;13.02;;;;;;;29.12;47.99;98934.38;5151864;27;20078;-70
2022/07/27 06:42:39;;;;;;;17.88;13.38;;;;;;;29.09;47.74;98929.44;5157381;27;20018;-70
2022/07/27 06:45:05;;;;;;;23.55;14.25;;;;;;;29.12;47.93;98928.13;5172960;27;20045;-69
2022/07/27 06:47:32;;;;;;;16.88;14.40;;;;;;;29.13;47.98;98935.19;5156919;27;20015;-70
2022/07/27 06:49:58;;;;;;;18.23;13.98;;;;;;;29.09;47.87;98940.34;5151770;27;20245;-70
2022/07/27 06:52:23;;;;;;;17.50;13.13;;;;;;;29.09;48.08;98940.34;5151492;27;20086;-69
2022/07/27 06:54:49;;;;;;;16.88;13.18;;;;;;;29.05;48.36;98950.94;5151679;27;20038;-69
2022/07/27 06:57:14;;;;;;;14.93;13.32;;;;;;;29.03;48.04;98946.81;5133966;27;20031;-69
2022/07/27 06:59:40;;;;;;;18.90;15.15;;;;;;;29.00;48.47;98948.16;5152051;27;20019;-70
2022/07/27 07:02:06;;;;;;;18.58;14.32;;;;;;;28.97;47.96;98937.75;5151358;27;20042;-69
2022/07/27 07:04:32;;;;;;;14.80;12.98;;;;;;;28.96;48.12;98943.47;5151004;27;20031;-70
2022/07/27 07:06:59;;;;;;;16.52;13.90;;;;;;;28.93;48.22;98951.06;5151420;27;20035;-70
2022/07/27 07:09:29;;;;;;;17.55;13.63;;;;;;;28.93;48.54;98951.06;5151026;27;20027;-69
2022/07/27 07:11:55;;;;;;;16.55;14.20;;;;;;;28.95;48.21;98961.72;5151280;27;20038;-69
2022/07/27 07:14:21;;;;;;;16.25;13.30;;;;;;;29.00;48.21;98947.34;5151179;27;20019;-71
2022/07/27 07:16:47;;;;;;;16.90;13.57;;;;;;;29.00;48.00;98947.34;5151147;27;20099;-70
2022/07/27 07:19:13;;;;;;;14.90;13.30;;;;;;;28.98;48.32;98954.94;5151050;27;20315;-70
2022/07/27 07:21:39;;;;;;;17.83;13.07;;;;;;;28.92;48.29;98951.34;5150122;27;20037;-70
2022/07/27 07:24:04;;;;;;;17.40;12.93;;;;;;;28.92;48.20;98946.69;5151317;27;20042;-70
2022/07/27 07:26:31;;;;;;;21.70;12.55;;;;;;;28.90;48.39;98954.31;5150605;27;20033;-70
2022/07/27 07:28:57;;;;;;;14.50;12.85;;;;;;;28.88;48.51;98953.75;5150815;27;20018;-70
2022/07/27 07:31:22;;;;;;;17.35;13.77;;;;;;;28.88;48.41;98955.66;5151415;27;20029;-71
2022/07/27 07:33:48;;;;;;;16.30;13.93;;;;;;;28.87;48.95;98959.44;5151318;27;20019;-71
2022/07/27 07:36:13;;;;;;;16.98;14.32;;;;;;;28.84;48.55;98955.34;5151084;27;20021;-70
2022/07/27 07:38:39;;;;;;;15.57;13.20;;;;;;;28.85;49.04;98957.00;5150885;27;20216;-70
2022/07/27 07:41:04;;;;;;;14.55;12.98;;;;;;;28.86;48.59;98957.78;5150628;27;20220;-72
2022/07/27 07:43:30;;;;;;;13.50;11.90;;;;;;;28.84;48.50;98960.78;5150470;27;20037;-71
2022/07/27 07:45:56;;;;;;;14.05;12.57;;;;;;;28.85;48.69;98956.16;5151099;27;20324;-70
2022/07/27 07:48:21;;;;;;;15.95;12.90;;;;;;;28.85;48.65;98954.25;5151017;27;20094;-70
2022/07/27 07:50:50;;;;;;;15.32;13.15;;;;;;;28.85;48.53;98957.00;5151280;27;20015;-71
2022/07/27 07:53:16;;;;;;;15.40;12.85;;;;;;;28.87;48.77;98959.44;5150451;27;20019;-71
2022/07/27 07:55:41;;;;;;;14.27;12.85;;;;;;;28.86;48.44;98961.34;5150607;27;20050;-70
2022/07/27 07:58:07;;;;;;;16.02;12.07;;;;;;;28.86;48.36;98957.78;5149966;27;20023;-72
2022/07/27 08:00:32;;;;;;;14.68;12.27;;;;;;;28.87;48.22;98965.72;5151096;27;20125;-70
2022/07/27 08:02:58;;;;;;;13.15;11.43;;;;;;;28.87;48.44;98968.44;5149835;27;20129;-70
2022/07/27 08:05:24;;;;;;;13.18;11.77;;;;;;;28.87;48.12;98954.00;5150232;27;20097;-71
2022/07/27 08:07:51;;;;;;;12.52;11.23;;;;;;;28.87;48.50;98965.72;5150638;27;20076;-72
2022/07/27 08:10:18;;;;;;;14.77;12.25;;;;;;;28.87;48.55;98960.28;5150638;27;20057;-71
2022/07/27 08:12:47;;;;;;;13.00;11.63;;;;;;;28.87;48.25;98964.88;5150162;27;20094;-71
2022/07/27 08:15:14;;;;;;;13.80;12.40;;;;;;;28.88;48.47;98955.66;5150051;27;20171;-70
2022/07/27 08:17:41;;;;;;;14.43;11.15;;;;;;;28.87;48.24;98957.56;5152968;27;20046;-71
2022/07/27 08:20:08;;;;;;;14.52;12.05;;;;;;;28.87;48.38;98954.84;5171256;27;20250;-70
2022/07/27 08:22:34;;;;;;;12.77;11.57;;;;;;;28.86;48.39;98955.91;5164866;27;20154;-70
2022/07/27 08:25:00;;;;;;;12.88;11.57;;;;;;;28.87;48.56;98956.72;5149163;27;20233;-70
2022/07/27 08:27:27;;;;;;;12.73;11.45;;;;;;;28.89;48.53;98960.00;5150290;27;20026;-72
2022/07/27 08:29:53;;;;;;;16.33;12.35;;;;;;;28.87;48.13;98949.41;5150081;27;20019;-70
2022/07/27 08:32:18;;;;;;;12.15;10.95;;;;;;;28.88;48.48;98956.47;5149504;27;20239;-71
2022/07/27 08:34:44;;;;;;;14.30;12.88;;;;;;;28.89;48.48;98957.28;5149655;27;20086;-71
2022/07/27 08:37:09;;;;;;;14.15;12.75;;;;;;;28.94;48.27;98954.63;5149604;27;20084;-71
2022/07/27 08:39:35;;;;;;;16.17;12.45;;;;;;;28.95;47.83;98944.56;5149883;27;20022;-70
2022/07/27 08:42:05;;;;;;;15.27;13.30;;;;;;;28.95;47.89;98945.38;5149401;27;20106;-71
2022/07/27 08:44:32;;;;;;;13.05;11.63;;;;;;;29.00;47.74;98947.34;5149770;27;20107;-70
2022/07/27 08:47:00;;;;;;;15.23;13.52;;;;;;;29.06;47.60;98952.56;5149786;27;20224;-70
2022/07/27 08:49:27;;;;;;;22.00;13.55;;;;;;;29.06;47.24;98960.75;5149942;27;20050;-70
2022/07/27 08:51:53;;;;;;;16.92;12.38;;;;;;;29.04;47.60;98949.28;5148895;27;20027;-70
2022/07/27 08:54:19;;;;;;;12.93;11.50;;;;;;;29.00;47.49;98948.16;5149560;27;20041;-70
2022/07/27 08:56:44;;;;;;;12.52;11.23;;;;;;;28.98;47.96;98957.66;5149726;27;20148;-70
2022/07/27 08:59:10;;;;;;;15.32;12.75;;;;;;;28.97;47.59;98953.28;5149744;27;20220;-70
2022/07/27 09:01:36;;;;;;;15.63;12.57;;;;;;;28.95;48.02;98950.84;5149241;27;20163;-70
2022/07/27 09:04:02;;;;;;;13.52;12.10;;;;;;;28.95;47.88;98955.44;5149669;27;20033;-70
2022/07/27 09:06:47;;;;;;;14.85;13.30;;;;;;;28.95;47.53;98953.56;5149652;27;20144;-70
2022/07/27 09:09:17;;;;;;;15.80;12.77;;;;;;;28.93;47.91;98947.53;5149470;27;20082;-70
2022/07/27 09:11:42;;;;;;;13.90;12.50;;;;;;;28.92;48.11;98948.63;5148963;27;20034;-69
2022/07/27 09:14:11;;;;;;;13.88;12.02;;;;;;;28.92;47.83;98946.69;5148596;27;20030;-69
2022/07/27 09:16:37;;;;;;;13.77;11.93;;;;;;;28.93;47.75;98958.44;5149347;27;20240;-70
2022/07/27 09:19:05;;;;;;;13.77;11.63;;;;;;;28.93;48.07;98958.44;5149346;27;20212;-69
2022/07/27 09:21:32;;;;;;;13.07;11.75;;;;;;;28.91;47.78;98961.41;5148861;27;20027;-70
2022/07/27 09:23:58;;;;;;;13.77;12.35;;;;;;;28.92;47.74;98965.75;5149159;27;20098;-70
2022/07/27 09:26:28;;;;;;;14.75;12.70;;;;;;;28.89;47.89;98957.28;5130307;27;20031;-70
2022/07/27 09:29:00;;;;;;;14.30;11.32;;;;;;;28.91;48.00;98960.59;5128556;28;20039;-69
2022/07/27 09:31:26;;;;;;;13.57;12.18;;;;;;;28.91;47.88;98960.59;5146316;27;20144;-69
2022/07/27 09:33:57;;;;;;;12.45;11.15;;;;;;;28.91;47.55;98966.84;5149098;27;20035;-70
2022/07/27 09:36:25;;;;;;;12.13;10.95;;;;;;;28.93;47.66;98961.97;5149105;27;20090;-70
2022/07/27 09:39:05;;;;;;;13.13;11.52;;;;;;;28.93;47.64;98964.69;5148105;27;20019;-69
2022/07/27 09:41:50;;;;;;;13.57;12.30;;;;;;;28.94;48.00;98965.53;5148312;27;20039;-70
2022/07/27 09:44:16;;;;;;;15.75;12.57;;;;;;;28.94;47.66;98965.53;5148497;27;20177;-69
2022/07/27 09:46:45;;;;;;;13.05;11.25;;;;;;;28.95;47.97;98961.72;5148700;27;20019;-69
2022/07/27 09:49:33;;;;;;;13.15;11.85;;;;;;;28.96;47.75;98959.81;5148414;27;20006;-70
2022/07/27 09:52:00;;;;;;;14.05;12.40;;;;;;;28.93;47.83;98948.34;5148628;27;20039;-70
2022/07/27 09:54:26;;;;;;;13.57;11.73;;;;;;;28.97;47.57;98950.56;5148602;27;20026;-70
2022/07/27 09:57:00;;;;;;;13.85;12.40;;;;;;;28.97;47.53;98953.28;5148387;27;20095;-70
2022/07/27 09:59:27;;;;;;;13.25;11.88;;;;;;;28.96;47.96;98948.91;5148527;27;20138;-69
2022/07/27 10:01:54;;;;;;;13.13;11.73;;;;;;;28.98;47.82;98958.47;5147364;27;20027;-70
2022/07/27 10:04:20;;;;;;;14.18;12.23;;;;;;;28.97;47.48;98953.28;5148794;28;20019;-70
2022/07/27 10:06:46;;;;;;;13.70;12.00;;;;;;;28.97;47.58;98954.09;5147820;27;20090;-69
2022/07/27 10:09:11;;;;;;;14.75;12.35;;;;;;;28.97;47.42;98953.28;5148443;28;20023;-70
2022/07/27 10:11:37;;;;;;;12.57;11.30;;;;;;;28.97;47.76;98954.09;5148218;28;20166;-70
2022/07/27 10:14:02;;;;;;;12.52;11.30;;;;;;;28.96;47.84;98952.47;5148541;27;20026;-70
2022/07/27 10:16:31;;;;;;;13.48;11.75;;;;;;;28.96;47.42;98940.75;5148569;28;20019;-70
2022/07/27 10:19:12;;;;;;;12.25;11.15;;;;;;;28.99;47.65;98942.97;5147804;27;20230;-70
2022/07/27 10:21:39;;;;;;;14.23;11.85;;;;;;;28.96;47.25;98944.31;5147074;27;20034;-70
2022/07/27 10:24:08;;;;;;;13.55;12.30;;;;;;;28.97;47.30;98953.28;5148287;28;20039;-70
2022/07/27 10:26:39;;;;;;;13.38;11.82;;;;;;;28.97;47.29;98953.28;5148353;28;20019;-71
2022/07/27 10:29:16;;;;;;;14.57;12.05;;;;;;;28.97;47.15;98943.19;5147719;28;20031;-70
2022/07/27 10:31:56;;;;;;;12.40;11.27;;;;;;;28.97;47.00;98943.19;5143342;27;20102;-70
2022/07/27 10:34:48;;;;;;;13.35;11.95;;;;;;;28.97;47.16;98943.19;5148342;28;20050;-70
2022/07/27 10:37:16;;;;;;;13.07;11.77;;;;;;;28.95;47.41;98948.09;5147199;27;20072;-71
2022/07/27 10:42:38;;;;;;;13.23;11.93;;;;;;;28.97;47.46;98942.41;5148249;28;20060;-70
2022/07/27 10:45:11;;;;;;;13.60;12.13;;;;;;;28.99;47.37;98945.69;5148039;28;20128;-70
2022/07/27 10:47:49;;;;;;;12.73;11.52;;;;;;;28.99;47.03;98943.78;5148020;27;20148;-70
2022/07/27 10:50:14;;;;;;;13.00;11.80;;;;;;;28.99;47.16;98948.41;5147881;28;20031;-70
2022/07/27 10:52:47;;;;;;;13.05;11.65;;;;;;;28.99;47.05;98940.25;5148155;27;20011;-71
2022/07/27 10:55:28;;;;;;;12.63;11.30;;;;;;;29.01;47.31;98954.44;5148833;27;20073;-70
2022/07/27 10:57:55;;;;;;;;;;;;;;;28.93;47.82;98951.06;5152340;27;20019;-70
2022/07/27 11:00:49;;;;;;;12.68;11.45;;;;;;;28.95;47.53;98944.56;5151635;27;19975;-70
2022/07/27 11:03:35;;;;;;;14.60;11.23;;;;;;;28.98;47.57;98952.22;5151214;27;20042;-70
2022/07/27 11:06:06;;;;;;;13.48;12.18;;;;;;;28.98;47.53;98944.03;5151610;27;20042;-70
2022/07/27 11:08:33;;;;;;;12.68;11.30;;;;;;;28.97;47.12;98937.75;5150718;27;20027;-70
2022/07/27 11:11:00;;;;;;;13.18;11.85;;;;;;;28.98;47.52;98947.56;5151813;27;20019;-70
2022/07/27 11:13:27;;;;;;;15.10;11.60;;;;;;;28.99;47.39;98941.06;5151128;27;20023;-69
2022/07/27 11:16:05;;;;;;;16.00;12.05;;;;;;;29.00;47.24;98942.69;5151552;27;20027;-70
2022/07/27 11:18:33;;;;;;;12.65;11.45;;;;;;;29.00;47.47;98933.72;5150545;27;20221;-70
2022/07/27 11:21:25;;;;;;;18.65;12.73;;;;;;;29.01;47.28;98943.53;5151611;27;20019;-70